Time;durP1;ratioP1;P1;durP2;ratioP2;P2;SDS_P1;SDS_P2;PMS_P1;PMS_P2;Temp;Humidity;BMP_temperature;BMP_pressure;BME280_temperature;BME280_humidity;BME280_pressure;Samples;Min_cycle;Max_cycle;Signal;HPM_P1;HPM_P2
2021/07/02 00:01:16;;;;;;;1.20;1.10;;;;;;;15.53;71.19;99216.56;1690784;81;21514;-63
2021/07/02 00:03:42;;;;;;;2.27;1.42;;;;;;;15.51;71.25;99223.73;1709938;81;21575;-62
2021/07/02 00:06:09;;;;;;;1.50;1.30;;;;;;;15.48;71.33;99229.22;1704446;81;21524;-63
2021/07/02 00:08:36;;;;;;;1.50;1.40;;;;;;;15.47;71.34;99227.56;1703604;81;21335;-63
2021/07/02 00:11:03;;;;;;;2.27;1.30;;;;;;;15.49;71.53;99225.63;1688091;81;21076;-63
2021/07/02 00:13:30;;;;;;;3.10;1.22;;;;;;;15.53;71.56;99227.09;1723329;81;21173;-62
2021/07/02 00:15:57;;;;;;;1.90;1.30;;;;;;;15.52;71.53;99228.05;1661752;81;24639;-63
2021/07/02 00:18:24;;;;;;;2.40;1.15;;;;;;;15.50;71.59;99222.06;1704196;81;21078;-63
2021/07/02 00:20:51;;;;;;;1.30;1.20;;;;;;;15.49;71.65;99225.63;1668053;81;21085;-62
2021/07/02 00:23:18;;;;;;;1.42;1.30;;;;;;;15.51;71.80;99231.62;1716640;81;20996;-63
2021/07/02 00:25:45;;;;;;;2.17;1.10;;;;;;;15.53;71.87;99234.98;1705851;81;21526;-62
2021/07/02 00:28:11;;;;;;;2.33;1.45;;;;;;;15.57;71.89;99239.91;1663040;84;21089;-63
2021/07/02 00:30:38;;;;;;;2.23;1.20;;;;;;;15.56;71.93;99230.31;1705834;81;20989;-63
2021/07/02 00:33:05;;;;;;;1.30;1.17;;;;;;;15.52;71.93;99228.05;1707105;81;21485;-63
2021/07/02 00:35:32;;;;;;;2.30;1.30;;;;;;;15.49;72.12;99225.63;1700164;81;21091;-63
2021/07/02 00:38:00;;;;;;;2.05;1.35;;;;;;;15.48;72.12;99223.96;1714070;81;39250;-63
2021/07/02 00:40:26;;;;;;;3.00;1.12;;;;;;;15.45;72.21;99216.66;1721047;81;21492;-63
2021/07/02 00:42:53;;;;;;;1.87;1.50;;;;;;;15.47;72.27;99217.03;1712724;81;21104;-63
2021/07/02 00:45:20;;;;;;;3.30;1.40;;;;;;;15.43;72.38;99214.64;1719924;81;21376;-63
2021/07/02 00:47:47;;;;;;;2.10;1.32;;;;;;;15.42;72.44;99218.20;1722171;81;20943;-63
2021/07/02 00:50:13;;;;;;;2.00;1.30;;;;;;;15.40;72.46;99222.77;1722509;81;21572;-63
2021/07/02 00:52:42;;;;;;;1.40;1.30;;;;;;;15.39;72.60;99210.55;1716829;81;21098;-62
2021/07/02 00:55:10;;;;;;;1.60;1.22;;;;;;;15.39;72.65;99209.23;1718246;81;21646;-63
2021/07/02 00:57:38;;;;;;;1.60;1.47;;;;;;;15.39;72.69;99212.34;1712040;81;21558;-63
2021/07/02 01:00:08;;;;;;;1.65;1.40;;;;;;;15.36;72.77;99205.52;1708520;81;21247;-63
2021/07/02 01:02:37;;;;;;;1.60;1.25;;;;;;;15.36;72.83;99208.15;1709625;81;21162;-63
2021/07/02 01:05:07;;;;;;;2.08;1.25;;;;;;;15.35;72.85;99206.48;1717738;81;21058;-63
2021/07/02 01:07:33;;;;;;;1.82;1.37;;;;;;;15.33;72.94;99205.75;1715812;81;21093;-63
2021/07/02 01:10:01;;;;;;;2.55;1.52;;;;;;;15.31;73.03;99209.45;1718273;81;20974;-63
2021/07/02 01:12:28;;;;;;;1.20;1.10;;;;;;;15.29;73.13;99209.58;1709316;81;21733;-63
2021/07/02 01:14:55;;;;;;;;;;;;;;;15.29;73.19;99206.95;1716159;81;21139;-63
2021/07/02 01:17:22;;;;;;;2.02;1.52;;;;;;;15.30;73.39;99203.84;1711793;81;20105;-63
2021/07/02 01:19:52;;;;;;;2.92;1.90;;;;;;;15.28;73.30;99207.88;1711927;81;21604;-63
2021/07/02 01:22:25;;;;;;;1.95;1.85;;;;;;;15.26;73.38;99204.52;1722050;81;20946;-63
2021/07/02 01:24:53;;;;;;;3.50;2.02;;;;;;;15.26;73.48;99199.26;1716071;81;20993;-63
2021/07/02 01:27:21;;;;;;;2.45;1.90;;;;;;;15.25;73.53;99200.23;1724349;81;21093;-63
2021/07/02 01:29:49;;;;;;;3.05;2.10;;;;;;;15.25;73.63;99200.70;1712460;81;21175;-63
2021/07/02 01:32:16;;;;;;;2.42;2.22;;;;;;;15.24;73.70;99203.81;1705499;81;21726;-63
2021/07/02 01:34:44;;;;;;;2.85;2.10;;;;;;;15.26;73.75;99203.69;1704223;81;21021;-63
2021/07/02 01:37:12;;;;;;;2.30;2.10;;;;;;;15.26;73.81;99209.78;1725021;81;22869;-63
2021/07/02 01:39:39;;;;;;;3.33;2.35;;;;;;;15.23;73.82;99207.38;1723333;81;22367;-63
2021/07/02 01:42:08;;;;;;;3.12;2.83;;;;;;;15.27;73.96;99207.53;1717515;82;20984;-63
2021/07/02 01:44:36;;;;;;;4.15;2.70;;;;;;;15.29;74.02;99206.08;1702830;81;21496;-63
2021/07/02 01:47:05;;;;;;;3.72;3.20;;;;;;;15.28;74.08;99199.99;1708437;81;20980;-63
2021/07/02 01:49:32;;;;;;;3.00;2.50;;;;;;;15.30;74.13;99208.61;1712608;81;21757;-63
2021/07/02 01:51:59;;;;;;;3.37;2.65;;;;;;;15.26;74.12;99206.31;1707314;81;21136;-63
2021/07/02 01:54:26;;;;;;;5.35;2.83;;;;;;;15.25;74.22;99209.91;1712693;81;21080;-63
2021/07/02 01:56:53;;;;;;;3.58;3.27;;;;;;;15.27;74.31;99206.22;1699617;81;21064;-63
2021/07/02 01:59:20;;;;;;;4.28;3.15;;;;;;;15.28;74.34;99207.88;1703784;82;21135;-63
2021/07/02 02:01:48;;;;;;;3.90;3.50;;;;;;;15.31;74.44;99213.39;1704604;81;21122;-63
2021/07/02 02:04:16;;;;;;;4.33;3.67;;;;;;;15.32;74.48;99209.34;1675588;83;23295;-63
2021/07/02 02:06:43;;;;;;;3.65;3.25;;;;;;;15.32;74.44;99214.61;1724727;81;21487;-63
2021/07/02 02:09:09;;;;;;;4.72;3.58;;;;;;;15.33;74.55;99216.27;1697754;82;21110;-63
2021/07/02 02:11:36;;;;;;;3.90;3.50;;;;;;;15.32;74.58;99214.61;1705870;81;21043;-63
2021/07/02 02:14:03;;;;;;;8.53;4.10;;;;;;;15.34;74.68;99217.94;1693518;81;20999;-63
2021/07/02 02:16:30;;;;;;;6.42;3.80;;;;;;;15.36;74.70;99218.67;1662714;83;21855;-63
2021/07/02 02:18:57;;;;;;;4.28;3.87;;;;;;;15.36;74.79;99212.09;1712497;81;21049;-63
2021/07/02 02:21:24;;;;;;;5.72;5.17;;;;;;;15.40;74.81;99214.01;1707077;82;21064;-63
2021/07/02 02:23:51;;;;;;;4.47;4.08;;;;;;;15.42;74.85;99219.52;1664344;84;21603;-63
2021/07/02 02:26:17;;;;;;;4.57;3.70;;;;;;;15.43;74.93;99226.48;1695916;82;21139;-63
2021/07/02 02:28:44;;;;;;;5.50;4.90;;;;;;;15.41;74.83;99224.43;1701099;82;21901;-63
2021/07/02 02:31:11;;;;;;;5.63;3.60;;;;;;;15.42;74.99;99224.78;1664686;84;20970;-63
2021/07/02 02:33:37;;;;;;;4.65;4.25;;;;;;;15.45;75.02;99219.77;1711119;81;20926;-63
2021/07/02 02:36:05;;;;;;;4.97;4.57;;;;;;;15.45;75.08;99217.97;1720343;81;21103;-63
2021/07/02 02:38:32;;;;;;;7.65;4.78;;;;;;;15.45;75.01;99220.59;1721468;81;20929;-63
2021/07/02 02:40:59;;;;;;;4.70;4.20;;;;;;;15.45;75.14;99222.40;1720285;81;21329;-63
2021/07/02 02:43:25;;;;;;;5.22;4.72;;;;;;;15.45;75.15;99221.91;1731084;81;21222;-63
2021/07/02 02:45:52;;;;;;;5.27;4.37;;;;;;;15.46;75.23;99222.78;1720193;81;20962;-63
2021/07/02 02:48:19;;;;;;;5.10;4.60;;;;;;;15.46;75.28;99224.09;1718555;81;21046;-63
2021/07/02 02:50:46;;;;;;;6.78;4.92;;;;;;;15.50;75.35;99226.84;1719461;81;21529;-63
2021/07/02 02:53:13;;;;;;;5.72;5.22;;;;;;;15.52;75.36;99228.05;1721027;81;21620;-63
2021/07/02 02:55:39;;;;;;;5.50;5.00;;;;;;;15.55;75.38;99233.08;1725649;81;21114;-63
2021/07/02 02:58:06;;;;;;;7.93;4.97;;;;;;;15.56;75.46;99226.86;1739269;80;21066;-63
2021/07/02 03:00:33;;;;;;;7.65;5.42;;;;;;;15.57;75.41;99229.38;1712117;81;21755;-63
2021/07/02 03:02:59;;;;;;;6.93;5.70;;;;;;;15.60;75.47;99232.23;1715774;81;21038;-63
2021/07/02 03:05:26;;;;;;;7.05;5.40;;;;;;;15.60;75.54;99228.28;1697210;81;22186;-63
2021/07/02 03:07:55;;;;;;;7.08;6.05;;;;;;;15.60;75.57;99230.91;1705397;81;20950;-63
2021/07/02 03:10:22;;;;;;;6.30;5.70;;;;;;;15.61;75.57;99228.66;1718458;81;21055;-63
2021/07/02 03:12:49;;;;;;;6.33;5.65;;;;;;;15.60;75.64;99233.09;1698246;82;20995;-63
2021/07/02 03:15:15;;;;;;;5.92;5.33;;;;;;;15.61;75.71;99230.81;1702917;81;21578;-63
2021/07/02 03:17:42;;;;;;;6.67;5.43;;;;;;;15.63;75.72;99225.45;1689744;82;21160;-63
2021/07/02 03:20:11;;;;;;;7.40;5.55;;;;;;;15.65;75.80;99232.24;1693615;82;21171;-63
2021/07/02 03:22:41;;;;;;;7.22;6.00;;;;;;;15.68;75.78;99227.26;1693877;81;21079;-63
2021/07/02 03:25:11;;;;;;;10.00;5.75;;;;;;;15.68;75.81;99227.26;1714720;81;21026;-63
2021/07/02 03:27:40;;;;;;;7.87;6.28;;;;;;;15.65;75.81;99221.72;1702379;81;21123;-63
2021/07/02 03:30:10;;;;;;;8.80;5.95;;;;;;;15.67;75.90;99224.25;1716995;81;21250;-64
2021/07/02 03:32:37;;;;;;;8.95;6.55;;;;;;;15.70;76.00;99224.04;1709908;81;21013;-63
2021/07/02 03:35:07;;;;;;;8.45;7.28;;;;;;;15.73;76.01;99222.48;1709653;82;21046;-63
2021/07/02 03:37:34;;;;;;;7.70;6.22;;;;;;;15.73;76.00;99225.61;1720498;81;21096;-63
2021/07/02 03:40:07;;;;;;;10.28;6.37;;;;;;;15.72;76.00;99227.41;1719184;81;21089;-63
2021/07/02 03:42:34;;;;;;;16.23;7.25;;;;;;;15.71;76.10;99215.21;1712620;81;21817;-63
2021/07/02 03:45:01;;;;;;;7.65;6.28;;;;;;;15.74;76.16;99216.28;1719637;81;21513;-62
2021/07/02 03:47:28;;;;;;;8.03;6.72;;;;;;;15.76;76.23;99215.67;1707074;81;21001;-62
2021/07/02 03:49:54;;;;;;;7.95;7.15;;;;;;;15.75;76.24;99215.32;1700427;82;21618;-62
2021/07/02 03:52:22;;;;;;;8.10;7.10;;;;;;;15.79;76.33;99206.22;1711701;81;20985;-63
2021/07/02 03:54:51;;;;;;;10.72;6.62;;;;;;;15.80;76.24;99206.59;1715344;81;21468;-63
2021/07/02 03:57:21;;;;;;;8.25;7.42;;;;;;;15.80;76.29;99206.59;1719521;81;20926;-63
2021/07/02 03:59:51;;;;;;;8.78;7.25;;;;;;;15.79;76.33;99207.53;1703390;81;21000;-63
2021/07/02 04:02:20;;;;;;;10.65;7.75;;;;;;;15.79;76.37;99204.91;1705073;81;21044;-63
2021/07/02 04:04:47;;;;;;;12.23;7.58;;;;;;;15.85;76.50;99209.72;1703672;81;20946;-62
2021/07/02 04:07:14;;;;;;;8.40;7.45;;;;;;;15.86;76.45;99203.48;1666091;83;22120;-63
2021/07/02 04:09:42;;;;;;;12.28;8.18;;;;;;;15.89;76.50;99209.83;1674211;84;21005;-63
2021/07/02 04:12:10;;;;;;;10.35;7.58;;;;;;;15.92;76.51;99213.19;1712846;81;20996;-63
2021/07/02 04:14:37;;;;;;;10.03;7.97;;;;;;;15.94;76.64;99208.16;1695684;82;21204;-63
2021/07/02 04:17:04;;;;;;;7.95;7.08;;;;;;;15.96;76.70;99210.66;1701798;81;21418;-63
2021/07/02 04:19:31;;;;;;;12.07;7.80;;;;;;;16.00;76.64;99206.84;1664415;83;21156;-63
2021/07/02 04:21:58;;;;;;;7.30;6.60;;;;;;;16.00;76.64;99209.48;1695851;82;20931;-63
2021/07/02 04:24:27;;;;;;;9.78;8.03;;;;;;;16.00;76.68;99207.69;1684987;82;21014;-63
2021/07/02 04:26:54;;;;;;;11.60;8.33;;;;;;;16.05;76.80;99212.60;1701723;82;21001;-62
2021/07/02 04:29:33;;;;;;;;;;;;;;;;;;;;;
2021/07/02 04:32:09;;;;;;;8.63;7.78;;;;;;;16.12;76.78;99200.61;1782865;78;20994;-63
2021/07/02 04:34:35;;;;;;;11.65;7.40;;;;;;;16.19;76.86;99199.19;1781305;77;21107;-63
2021/07/02 04:37:03;;;;;;;9.60;7.70;;;;;;;16.20;76.77;99198.22;1788598;77;21012;-63
2021/07/02 04:39:29;;;;;;;9.80;7.75;;;;;;;16.20;76.90;99195.58;1780786;79;21059;-63
2021/07/02 04:41:56;;;;;;;11.03;7.95;;;;;;;16.21;77.09;99193.30;1738893;79;21039;-63
2021/07/02 04:44:23;;;;;;;16.62;7.58;;;;;;;16.17;76.85;99195.83;1787699;78;21301;-63
2021/07/02 04:46:49;;;;;;;7.53;6.78;;;;;;;16.16;76.93;99188.89;1744622;80;21028;-63
2021/07/02 04:49:16;;;;;;;8.77;7.00;;;;;;;16.21;77.06;99191.14;1740530;79;20930;-63
2021/07/02 04:51:43;;;;;;;9.10;7.63;;;;;;;16.22;76.97;99183.14;1777121;78;21254;-63
2021/07/02 04:54:09;;;;;;;9.07;7.00;;;;;;;16.21;77.07;99184.08;1736628;79;21112;-63
2021/07/02 04:56:36;;;;;;;10.60;7.95;;;;;;;16.19;77.06;99180.75;1747129;79;22309;-63
2021/07/02 04:59:03;;;;;;;9.50;7.90;;;;;;;16.16;77.07;99183.63;1760375;79;21094;-63
2021/07/02 05:01:29;;;;;;;12.43;7.83;;;;;;;16.16;77.21;99183.63;1758615;79;21071;-63
2021/07/02 05:03:56;;;;;;;10.25;8.28;;;;;;;16.20;77.36;99182.41;1726646;79;20987;-63
2021/07/02 05:06:23;;;;;;;9.38;7.15;;;;;;;16.20;77.24;99187.68;1741239;79;21584;-63
2021/07/02 05:08:50;;;;;;;10.10;7.05;;;;;;;16.23;77.41;99190.07;1728430;79;21112;-62
2021/07/02 05:11:17;;;;;;;9.80;7.12;;;;;;;16.23;77.40;99190.07;1781978;78;20967;-62
2021/07/02 05:13:43;;;;;;;9.53;6.93;;;;;;;16.30;77.60;99191.76;1746034;79;20949;-63
2021/07/02 05:16:11;;;;;;;8.95;7.45;;;;;;;16.32;77.50;99193.77;1778678;79;20977;-63
2021/07/02 05:18:38;;;;;;;9.80;7.40;;;;;;;16.31;77.49;99200.84;1721425;80;21133;-63
2021/07/02 05:21:05;;;;;;;;;;;;;;;16.36;77.67;99199.66;1752319;79;22106;-63
2021/07/02 05:23:32;;;;;;;10.77;7.43;;;;;;;16.40;77.62;99214.24;1745181;79;20297;-63
2021/07/02 05:25:59;;;;;;;10.30;6.65;;;;;;;16.39;77.61;99212.58;1732728;79;21215;-63
2021/07/02 05:28:26;;;;;;;11.88;7.30;;;;;;;16.39;77.61;99215.22;1730496;79;21046;-62
2021/07/02 05:30:53;;;;;;;10.18;7.37;;;;;;;16.36;77.66;99212.34;1722137;80;21242;-64
2021/07/02 05:33:20;;;;;;;;;;;;;;;16.39;77.67;99215.22;1761468;78;21630;-63
2021/07/02 05:35:47;;;;;;;7.87;6.87;;;;;;;16.46;78.04;99208.48;1741030;79;20181;-63
2021/07/02 05:38:15;;;;;;;18.25;12.78;;;;;;;16.46;77.84;99211.11;1741239;79;20987;-63
2021/07/02 05:40:42;;;;;;;8.40;6.95;;;;;;;16.54;77.93;99208.70;1747167;78;21102;-64
2021/07/02 05:43:09;;;;;;;8.95;6.87;;;;;;;16.60;77.90;99207.38;1748051;78;21594;-64
2021/07/02 05:45:36;;;;;;;8.43;7.25;;;;;;;16.63;77.84;99209.28;1743775;78;21509;-64
2021/07/02 05:48:03;;;;;;;9.43;6.93;;;;;;;16.64;77.88;99212.30;1731696;79;21041;-63
2021/07/02 05:50:30;;;;;;;9.13;6.90;;;;;;;16.72;77.96;99211.20;1732576;79;24537;-63
2021/07/02 05:52:58;;;;;;;9.75;6.58;;;;;;;16.77;77.95;99212.98;1760409;79;21652;-63
2021/07/02 05:55:25;;;;;;;;;;;;;;;16.88;78.11;99210.80;1728949;79;21034;-62
2021/07/02 05:57:52;;;;;;;;;;;;;;;16.95;78.02;99212.47;1743164;80;21127;-63
2021/07/02 06:00:20;;;;;;;;;;;;;;;16.90;77.88;99219.91;1745482;79;20343;-64
2021/07/02 06:02:47;;;;;;;6.80;5.72;;;;;;;16.91;78.07;99217.63;1760820;78;20532;-63
2021/07/02 06:05:13;;;;;;;9.23;6.22;;;;;;;16.91;78.04;99217.14;1739108;78;21059;-63
2021/07/02 06:07:51;;;;;;;10.08;6.10;;;;;;;16.95;78.06;99209.84;1731469;79;21516;-63
2021/07/02 06:10:23;;;;;;;7.72;6.17;;;;;;;16.91;78.09;99213.67;1743402;79;21183;-63
2021/07/02 06:12:50;;;;;;;8.20;6.20;;;;;;;16.96;78.22;99216.77;1735080;80;21036;-63
2021/07/02 06:15:19;;;;;;;6.50;5.80;;;;;;;17.04;78.28;99216.98;1789325;79;21579;-64
2021/07/02 06:17:50;;;;;;;12.28;5.70;;;;;;;17.16;78.19;99210.69;1767605;79;21038;-63
2021/07/02 06:20:18;;;;;;;8.40;6.42;;;;;;;17.17;78.02;99211.06;1780484;78;21526;-62
2021/07/02 06:22:45;;;;;;;9.13;6.92;;;;;;;17.16;78.28;99201.94;1740962;79;21620;-63
2021/07/02 06:25:13;;;;;;;8.55;6.78;;;;;;;17.19;78.12;99210.43;1762461;79;21082;-64
2021/07/02 06:27:41;;;;;;;10.28;6.33;;;;;;;17.25;78.18;99213.53;1778764;78;21017;-63
2021/07/02 06:30:10;;;;;;;9.05;7.03;;;;;;;17.17;78.07;99217.66;1767310;78;21562;-64
2021/07/02 06:32:37;;;;;;;9.20;6.30;;;;;;;17.15;78.24;99214.30;1752371;79;21020;-62
2021/07/02 06:35:04;;;;;;;;;;;;;;;17.19;78.63;99215.70;1724447;80;21451;-62
2021/07/02 06:37:31;;;;;;;7.70;6.20;;;;;;;17.12;78.34;99224.28;1779298;79;21223;-63
2021/07/02 06:39:57;;;;;;;8.48;5.97;;;;;;;17.05;78.45;99221.28;1770168;79;21132;-63
2021/07/02 06:42:26;;;;;;;6.33;5.58;;;;;;;17.02;78.63;99225.50;1747110;79;21451;-62
2021/07/02 06:44:52;;;;;;;7.60;5.90;;;;;;;17.01;78.61;99222.52;1780597;78;21377;-63
2021/07/02 06:47:19;;;;;;;8.23;6.22;;;;;;;17.01;79.40;99219.88;1745504;79;21204;-63
2021/07/02 06:49:46;;;;;;;7.25;5.72;;;;;;;16.91;78.95;99226.86;1727028;78;21572;-62
2021/07/02 06:52:12;;;;;;;10.18;6.00;;;;;;;16.91;78.91;99227.69;1726374;78;21105;-62
2021/07/02 06:54:40;;;;;;;15.00;6.72;;;;;;;16.92;78.84;99228.55;1740923;80;21021;-63
2021/07/02 06:57:13;;;;;;;10.95;6.47;;;;;;;16.93;79.19;99228.89;1770276;78;21129;-63
2021/07/02 06:59:38;;;;;;;6.65;5.58;;;;;;;16.91;78.91;99230.32;1749017;77;21121;-63
2021/07/02 07:02:10;;;;;;;14.33;6.62;;;;;;;16.97;80.03;99236.89;1744886;77;20909;-63
2021/07/02 07:04:40;;;;;;;10.53;6.65;;;;;;;16.91;79.18;99236.08;1761705;78;21141;-63
2021/07/02 07:07:08;;;;;;;;;;;;;;;16.93;79.16;99244.72;1782847;78;21041;-62
2021/07/02 07:09:49;;;;;;;7.45;6.70;;;;;;;16.94;79.32;99238.02;1749725;78;20199;-63
2021/07/02 07:12:36;;;;;;;7.55;6.50;;;;;;;16.94;79.62;99241.11;1772584;78;20988;-62
2021/07/02 07:15:18;;;;;;;9.33;6.80;;;;;;;16.94;79.60;99239.78;1786693;77;20968;-62
2021/07/02 07:17:49;;;;;;;7.92;6.17;;;;;;;17.00;79.74;99236.67;1777140;79;21065;-63
2021/07/02 07:20:15;;;;;;;6.83;6.12;;;;;;;17.07;79.56;99235.20;1769829;79;21242;-63
2021/07/02 07:22:43;;;;;;;8.65;6.45;;;;;;;17.21;79.60;99238.85;1771770;79;21033;-63
2021/07/02 07:25:13;;;;;;;;;;;;;;;17.31;79.45;99231.48;1771048;79;21028;-63
2021/07/02 07:27:41;;;;;;;7.17;6.20;;;;;;;17.46;79.47;99230.22;1730818;79;20544;-62
2021/07/02 07:30:09;;;;;;;6.78;6.08;;;;;;;17.60;79.33;99229.91;1722130;79;21059;-63
2021/07/02 07:32:37;;;;;;;7.10;6.40;;;;;;;17.81;79.13;99234.35;1774624;78;21513;-63
2021/07/02 07:35:18;;;;;;;6.58;5.75;;;;;;;18.00;79.20;99229.17;1733585;79;21101;-63
2021/07/02 07:37:37;;;;;;;6.55;5.87;;;;;;;18.15;78.54;99223.53;1742341;79;21193;-63
2021/07/02 07:40:08;;;;;;;8.25;5.72;;;;;;;18.35;78.66;99230.59;1739874;79;21046;-63
2021/07/02 07:42:37;;;;;;;8.53;6.28;;;;;;;18.51;78.19;99234.88;1735094;79;21036;-64
2021/07/02 07:45:07;;;;;;;5.87;5.28;;;;;;;18.66;78.38;99241.11;1748622;79;21046;-63
2021/07/02 07:47:40;;;;;;;8.05;5.72;;;;;;;18.81;77.66;99237.13;1744855;77;21010;-64
2021/07/02 07:50:12;;;;;;;8.13;5.40;;;;;;;18.88;77.69;99240.91;1776834;78;21132;-63
2021/07/02 07:52:54;;;;;;;6.35;4.62;;;;;;;18.76;77.16;99239.33;1752432;79;20971;-63
2021/07/02 07:55:26;;;;;;;9.38;5.72;;;;;;;18.67;77.02;99248.06;1738410;79;21075;-63
2021/07/02 07:57:55;;;;;;;6.75;5.95;;;;;;;18.51;77.19;99248.11;1783210;79;21030;-63
2021/07/02 08:00:24;;;;;;;6.15;5.50;;;;;;;18.31;77.22;99250.30;1777347;78;21169;-63
2021/07/02 08:02:53;;;;;;;8.38;7.10;;;;;;;18.30;77.72;99249.48;1743319;78;21363;-63
2021/07/02 08:05:23;;;;;;;9.18;5.45;;;;;;;18.21;77.57;99246.81;1708777;80;22242;-63
2021/07/02 08:07:51;;;;;;;8.30;5.30;;;;;;;18.29;77.69;99250.95;1732671;79;21128;-63
2021/07/02 08:10:25;;;;;;;6.70;5.47;;;;;;;18.33;77.54;99248.38;1732107;78;21493;-63
2021/07/02 08:12:54;;;;;;;8.93;6.40;;;;;;;18.35;77.43;99254.37;1739674;79;21118;-63
2021/07/02 08:15:27;;;;;;;7.67;5.70;;;;;;;18.27;77.59;99256.84;1741967;79;21484;-63
2021/07/02 08:17:55;;;;;;;7.22;5.53;;;;;;;18.23;77.30;99251.45;1744848;79;21555;-62
2021/07/02 08:20:23;;;;;;;8.33;5.95;;;;;;;18.06;77.43;99257.73;1743601;79;21030;-63
2021/07/02 08:22:51;;;;;;;10.23;5.60;;;;;;;17.94;77.64;99264.05;1751524;79;21030;-63
2021/07/02 08:25:19;;;;;;;7.30;5.92;;;;;;;17.83;77.96;99266.76;1778317;79;21165;-63
2021/07/02 08:30:32;;;;;;;6.70;6.10;;;;;;;17.57;78.21;99267.12;1735675;80;21070;-62
2021/07/02 08:32:59;;;;;;;11.48;6.50;;;;;;;17.60;78.18;99270.81;1721124;79;21093;-62
2021/07/02 08:35:26;;;;;;;8.48;5.85;;;;;;;17.63;78.24;99264.45;1722876;79;21623;-63
2021/07/02 08:37:54;;;;;;;;;;;;;;;17.58;78.26;99268.78;1734709;79;21138;-63
2021/07/02 08:40:24;;;;;;;6.97;6.20;;;;;;;17.54;78.31;99264.73;1743847;79;21039;-64
2021/07/02 08:42:51;;;;;;;8.65;6.72;;;;;;;17.52;78.38;99264.02;1720644;79;20974;-63
2021/07/02 08:45:23;;;;;;;;;;;;;;;17.52;78.45;99262.70;1778566;78;21073;-65
2021/07/02 08:47:48;;;;;;;7.28;6.10;;;;;;;17.65;78.57;99266.48;1776119;78;20710;-63
2021/07/02 08:50:18;;;;;;;9.28;6.97;;;;;;;17.77;78.75;99270.72;1738763;77;21019;-63
2021/07/02 08:52:46;;;;;;;10.65;6.78;;;;;;;17.95;78.50;99268.34;1725230;79;21176;-63
2021/07/02 08:55:13;;;;;;;8.75;6.12;;;;;;;18.14;78.38;99269.43;1743944;78;21135;-63
2021/07/02 08:57:43;;;;;;;8.70;5.90;;;;;;;18.21;77.99;99265.30;1770502;78;21168;-63
2021/07/02 09:00:13;;;;;;;9.08;6.03;;;;;;;18.34;78.28;99268.53;1758066;79;20928;-62
2021/07/02 09:02:40;;;;;;;5.72;5.15;;;;;;;18.58;78.17;99267.39;1740847;79;21014;-63
2021/07/02 09:05:36;;;;;;;7.85;5.67;;;;;;;18.62;77.61;99266.13;1758564;79;21845;-63
2021/07/02 09:08:18;;;;;;;8.73;5.80;;;;;;;18.48;77.35;99274.78;1725424;79;21020;-63
2021/07/02 09:10:47;;;;;;;5.30;4.65;;;;;;;18.44;77.85;99274.70;1748397;79;20915;-63
2021/07/02 09:13:15;;;;;;;7.50;5.50;;;;;;;18.62;78.18;99275.39;1766409;79;21010;-63
2021/07/02 09:15:46;;;;;;;6.97;5.03;;;;;;;18.83;77.89;99274.86;1720635;79;21536;-64
2021/07/02 09:18:14;;;;;;;8.03;5.45;;;;;;;19.10;77.86;99278.64;1776409;79;21091;-64
2021/07/02 09:20:45;;;;;;;9.08;6.00;;;;;;;19.37;77.19;99280.12;1754003;79;21028;-63
2021/07/02 09:23:15;;;;;;;5.72;4.67;;;;;;;19.31;76.46;99280.69;1723662;79;20943;-63
2021/07/02 09:25:53;;;;;;;8.85;5.65;;;;;;;19.32;76.63;99286.32;1750956;79;21527;-62
2021/07/02 09:28:24;;;;;;;7.05;6.05;;;;;;;19.36;77.16;99279.79;1737290;79;21764;-63
2021/07/02 09:30:52;;;;;;;5.55;4.95;;;;;;;19.51;76.50;99284.66;1736199;79;21080;-63
2021/07/02 09:33:23;;;;;;;8.10;5.15;;;;;;;19.47;76.64;99283.28;1750112;79;20971;-63
2021/07/02 09:35:59;;;;;;;7.30;4.10;;;;;;;19.49;76.80;99282.63;1717192;79;21643;-62
2021/07/02 09:38:38;;;;;;;11.37;5.87;;;;;;;19.54;76.61;99281.23;1749906;79;21135;-62
2021/07/02 09:41:07;;;;;;;6.28;4.35;;;;;;;19.56;76.89;99290.38;1752234;79;21043;-63
2021/07/02 09:43:38;;;;;;;7.62;4.65;;;;;;;19.79;76.64;99287.80;1756525;79;21918;-65
2021/07/02 09:46:07;;;;;;;7.10;4.92;;;;;;;19.74;76.09;99287.88;1763354;79;21020;-63
2021/07/02 09:48:44;;;;;;;6.60;4.42;;;;;;;19.74;76.13;99293.17;1710498;80;21051;-62
2021/07/02 09:51:13;;;;;;;7.47;5.17;;;;;;;19.76;75.93;99284.11;1747240;78;21480;-63
2021/07/02 09:53:40;;;;;;;5.70;4.65;;;;;;;19.55;75.41;99288.69;1789866;79;22350;-63
2021/07/02 09:56:19;;;;;;;6.45;4.72;;;;;;;19.52;76.02;99291.62;1765921;78;21541;-63
2021/07/02 09:58:46;;;;;;;4.97;4.37;;;;;;;19.51;76.01;99295.25;1744591;79;21054;-63
2021/07/02 10:01:25;;;;;;;5.67;4.17;;;;;;;19.50;75.76;99296.23;1776740;79;21557;-64
2021/07/02 10:03:54;;;;;;;5.45;4.10;;;;;;;19.44;75.55;99295.81;1740763;79;20946;-63
2021/07/02 10:06:24;;;;;;;7.87;4.60;;;;;;;19.20;74.88;99292.73;1789428;78;21303;-63
2021/07/02 10:08:54;;;;;;;9.48;4.85;;;;;;;18.88;75.13;99294.30;1747203;79;21114;-63
2021/07/02 10:11:23;;;;;;;5.65;5.03;;;;;;;18.62;75.56;99296.54;1717273;79;21602;-63
2021/07/02 10:13:51;;;;;;;6.67;4.53;;;;;;;18.52;75.83;99300.48;1722902;79;21004;-64
2021/07/02 10:16:19;;;;;;;5.90;4.33;;;;;;;18.44;76.18;99297.17;1745214;80;21005;-63
2021/07/02 10:19:01;;;;;;;4.67;4.12;;;;;;;18.31;76.19;99297.39;1746609;79;21047;-63
2021/07/02 10:21:29;;;;;;;10.38;5.28;;;;;;;18.32;76.40;99299.57;1725517;79;21134;-63
2021/07/02 10:24:01;;;;;;;6.45;4.53;;;;;;;18.21;76.37;99307.58;1757130;79;21044;-63
2021/07/02 10:26:35;;;;;;;7.65;5.00;;;;;;;18.10;76.46;99306.69;1743685;79;21062;-63
2021/07/02 10:29:04;;;;;;;6.37;5.08;;;;;;;18.05;76.54;99306.72;1752372;79;20968;-63
2021/07/02 10:31:31;;;;;;;5.12;4.60;;;;;;;18.02;76.68;99303.85;1763348;78;21132;-63
2021/07/02 10:34:00;;;;;;;5.05;4.55;;;;;;;18.01;76.67;99308.80;1795522;78;22208;-64
2021/07/02 10:36:33;;;;;;;5.95;4.78;;;;;;;17.95;76.75;99315.89;1762427;79;21079;-63
2021/07/02 10:39:01;;;;;;;5.72;4.80;;;;;;;17.91;77.32;99314.48;1774707;79;21621;-63
2021/07/02 10:41:31;;;;;;;5.95;4.65;;;;;;;17.84;77.32;99306.71;1753488;80;21646;-63
2021/07/02 10:44:12;;;;;;;6.05;5.45;;;;;;;17.75;77.48;99303.50;1749560;79;22028;-63
2021/07/02 10:46:56;;;;;;;8.05;4.80;;;;;;;17.77;77.53;99300.26;1761097;78;21202;-63
2021/07/02 10:49:39;;;;;;;17.05;5.50;;;;;;;17.87;77.54;99305.99;1739355;79;21051;-63
2021/07/02 10:52:28;;;;;;;9.20;5.65;;;;;;;17.92;77.45;99310.87;1770308;79;21063;-63
2021/07/02 10:54:57;;;;;;;9.93;6.17;;;;;;;17.97;77.58;99311.33;1758951;78;21069;-63
2021/07/02 10:57:26;;;;;;;10.48;5.47;;;;;;;17.96;77.66;99312.30;1756791;79;21715;-63
2021/07/02 10:59:58;;;;;;;7.78;5.30;;;;;;;18.07;77.80;99310.91;1779809;78;21126;-63
2021/07/02 11:02:26;;;;;;;9.68;5.80;;;;;;;18.13;77.82;99303.44;1732845;79;21091;-63
2021/07/02 11:04:58;;;;;;;6.33;5.28;;;;;;;18.14;77.74;99309.06;1739020;80;21616;-63
2021/07/02 11:07:30;;;;;;;7.55;5.30;;;;;;;18.22;78.10;99313.21;1734938;78;21018;-63
2021/07/02 11:10:03;;;;;;;9.05;5.65;;;;;;;18.24;77.89;99304.67;1741416;79;21049;-62
2021/07/02 11:12:33;;;;;;;8.15;5.15;;;;;;;18.29;77.81;99301.16;1748332;79;21104;-63
2021/07/02 11:15:10;;;;;;;8.48;5.58;;;;;;;18.29;77.69;99301.16;1777811;79;21952;-62
2021/07/02 11:17:49;;;;;;;8.28;5.60;;;;;;;18.31;77.74;99297.88;1727137;80;21032;-62
2021/07/02 11:20:24;;;;;;;7.70;5.40;;;;;;;18.36;77.72;99303.61;1718707;80;21682;-63
2021/07/02 11:23:12;;;;;;;6.75;4.80;;;;;;;18.32;77.76;99299.57;1780304;78;21803;-66
2021/07/02 11:28:22;;;;;;;6.55;4.78;;;;;;;18.45;77.60;99296.20;1781445;77;21550;-64
2021/07/02 11:30:48;;;;;;;7.75;4.92;;;;;;;18.58;77.46;99304.41;1759588;79;21054;-63
2021/07/02 11:33:19;;;;;;;4.95;4.35;;;;;;;18.61;77.46;99294.39;1762428;79;20972;-63
2021/07/02 11:35:56;;;;;;;5.90;4.03;;;;;;;18.60;77.17;99299.80;1734776;80;20931;-64
2021/07/02 11:38:24;;;;;;;;;;;;;;;18.62;77.20;99303.15;1726540;80;21271;-62
2021/07/02 11:41:08;;;;;;;4.97;3.92;;;;;;;18.64;77.05;99301.22;1760460;80;20089;-63
2021/07/02 11:43:41;;;;;;;6.45;4.35;;;;;;;18.64;77.30;99293.28;1726399;80;20929;-63
2021/07/02 11:46:13;;;;;;;6.95;4.15;;;;;;;18.91;76.99;99297.99;1735748;79;21548;-62
2021/07/02 11:48:43;;;;;;;10.95;3.92;;;;;;;18.97;76.83;99289.02;1746121;78;21482;-63
2021/07/02 11:51:14;;;;;;;4.15;3.00;;;;;;;19.16;76.74;99291.35;1714532;80;22380;-63